Terminal Aerodrome Forecast
Issued by NWS Boston, MA

Current Version | Previous Version | Text Only | Print | Product List | Glossary On
Versions: 1 2 3 4 5 6 7 8 9 10 11 12 13 14 15 16 17 18 19 20 21 22 23 24 25 26 27 28 29 30 31 32 33 34 35 36 37 38 39 40 41 42 43
149
FTUS41 KBOX 241129
TAFPVD
TAF
KPVD 241129Z 2412/2512 04007KT 5SM BR OVC008
     FM241400 03006KT P6SM OVC008
     FM241600 35007KT P6SM BKN015
     FM242300 29005KT P6SM BKN020
     FM250000 VRB03KT P6SM OVC020
     FM250200 23004KT P6SM OVC045
     FM250800 24004KT 5SM BR BKN200
     FM251100 25004KT P6SM SCT250=

USA.gov is the U.S. government's official web portal to all federal, state and local government web resources and services.